Time;durP1;ratioP1;P1;durP2;ratioP2;P2;SDS_P1;SDS_P2;PMS_P1;PMS_P2;Temp;Humidity;BMP_temperature;BMP_pressure;BME280_temperature;BME280_humidity;BME280_pressure;Samples;Min_cycle;Max_cycle;Signal;HPM_P1;HPM_P2
2021/03/22 03:48:29;;;;;;;16.70;5.03;;;5.40;72.90;;;;;;6037478;22;20186;31
2021/03/22 03:50:57;;;;;;;15.05;4.50;;;5.50;75.90;;;;;;6214196;23;20183;-87
2021/03/22 04:16:44;;;;;;;16.80;6.45;;;5.60;71.70;;;;;;6067664;22;20219;-87
2021/03/22 04:27:06;;;;;;;19.33;7.78;;;5.40;73.40;;;;;;6100298;23;20193;-85
2021/03/22 04:29:33;;;;;;;16.38;8.80;;;6.30;77.30;;;;;;6120543;23;20207;-87
2021/03/22 04:32:23;;;;;;;22.43;7.93;;;5.30;76.50;;;;;;6120056;23;20150;-87
2021/03/22 04:40:01;;;;;;;29.50;9.25;;;5.30;74.60;;;;;;6102088;23;20201;-87
2021/03/22 04:42:27;;;;;;;19.95;8.75;;;7.80;77.20;;;;;;6120906;23;20186;-88
2021/03/22 04:44:57;;;;;;;22.25;8.77;;;5.40;77.70;;;;;;6127326;22;20177;-86
2021/03/22 04:52:48;;;;;;;22.80;9.18;;;5.20;76.50;;;;;;6069325;22;20190;-86
2021/03/22 05:00:51;;;;;;;21.80;9.45;;;5.10;78.60;;;;;;6037521;22;21319;-86
2021/03/22 05:08:56;;;;;;;22.55;8.80;;;5.00;83.80;;;;;;6127572;22;20217;-87
2021/03/22 05:11:22;;;;;;;21.25;9.35;;;5.10;87.30;;;;;;6118515;23;20158;-87
2021/03/22 05:13:48;;;;;;;21.90;9.73;;;5.10;87.30;;;;;;6118320;23;20205;-88
2021/03/22 05:16:14;;;;;;;23.80;9.70;;;5.00;87.70;;;;;;6117572;22;20162;-86
2021/03/22 05:18:45;;;;;;;30.73;9.45;;;4.90;88.30;;;;;;6117976;22;20416;-86
2021/03/22 05:21:14;;;;;;;24.98;9.80;;;5.10;83.70;;;;;;6118774;23;20141;-86
2021/03/22 05:23:46;;;;;;;28.00;11.13;;;5.00;84.00;;;;;;6116261;23;20509;-89
2021/03/22 05:26:12;;;;;;;22.95;10.80;;;7.40;87.80;;;;;;6117127;23;20150;-87
2021/03/22 05:28:48;;;;;;;30.73;11.23;;;4.90;87.60;;;;;;6117781;23;20176;-87
2021/03/22 05:31:24;;;;;;;32.25;12.10;;;4.70;88.70;;;;;;6114896;22;20138;-87
2021/03/22 05:34:11;;;;;;;24.05;11.95;;;5.00;89.50;;;;;;6158014;23;20216;-86
2021/03/22 05:36:38;;;;;;;28.20;10.43;;;4.80;90.20;;;;;;6093901;22;20218;-86
2021/03/22 05:39:32;;;;;;;27.25;11.65;;;4.90;90.00;;;;;;6118418;22;20147;-87
2021/03/22 05:43:12;;;;;;;16.33;10.52;;;4.90;92.10;;;;;;6117380;22;20153;-88
2021/03/22 05:45:46;;;;;;;26.42;11.50;;;6.70;92.20;;;;;;6193298;22;20186;-87
2021/03/22 05:48:49;;;;;;;28.23;12.27;;;5.20;91.20;;;;;;6293603;22;20184;-87
2021/03/22 06:00:10;;;;;;;27.20;11.05;;;5.00;91.80;;;;;;6231449;22;20181;-88
2021/03/22 06:02:46;;;;;;;27.33;11.02;;;5.00;91.60;;;;;;6270872;23;20147;-89
2021/03/22 06:05:45;;;;;;;29.10;10.30;;;5.00;92.80;;;;;;6244417;23;20147;-85
2021/03/22 06:08:33;;;;;;;25.25;9.60;;;5.90;91.90;;;;;;6270051;22;20123;-88
2021/03/22 06:11:01;;;;;;;20.67;10.50;;;4.80;91.00;;;;;;6245254;22;20182;-88
2021/03/22 06:14:14;;;;;;;20.75;11.00;;;4.80;92.40;;;;;;6217133;23;20158;-88
2021/03/22 06:17:23;;;;;;;24.80;10.25;;;5.20;91.90;;;;;;6116447;23;20162;-87
2021/03/22 06:20:04;;;;;;;23.45;10.77;;;5.00;92.20;;;;;;6084233;22;20153;-87
2021/03/22 06:25:17;;;;;;;20.13;8.77;;;4.90;92.00;;;;;;6105107;23;20205;-87
2021/03/22 06:28:29;;;;;;;22.23;10.70;;;4.90;93.10;;;;;;6218802;22;20199;-86
2021/03/22 06:31:42;;;;;;;25.60;10.20;;;5.00;93.00;;;;;;6197230;22;20584;-88
2021/03/22 06:34:57;;;;;;;13.48;9.40;;;5.00;91.20;;;;;;6216556;22;20218;-87
2021/03/22 06:40:14;;;;;;;24.23;9.63;;;5.00;92.00;;;;;;6156354;23;20209;-85
2021/03/22 06:48:39;;;;;;;20.42;9.68;;;5.30;92.00;;;;;;6234360;23;20199;-88
2021/03/22 06:51:09;;;;;;;21.08;7.50;;;5.10;91.40;;;;;;6210477;23;20159;-87
2021/03/22 06:57:03;;;;;;;24.20;8.48;;;5.20;91.00;;;;;;6184865;22;20199;-87
2021/03/22 07:02:30;;;;;;;17.42;6.72;;;5.20;91.50;;;;;;6150035;22;20245;-87
2021/03/22 07:05:16;;;;;;;15.10;7.68;;;5.30;90.40;;;;;;6115288;23;20170;-89
2021/03/22 07:08:02;;;;;;;14.65;8.65;;;6.20;90.90;;;;;;6221285;23;20160;-90
2021/03/22 07:10:44;;;;;;;28.60;9.93;;;5.60;89.40;;;;;;6113120;23;20139;-89
2021/03/22 07:14:01;;;;;;;12.80;6.60;;;5.60;88.30;;;;;;6115035;23;20154;-86
2021/03/22 07:21:58;;;;;;;10.88;6.45;;;6.00;88.30;;;;;;6083396;22;20209;-87
2021/03/22 07:24:37;;;;;;;10.65;6.32;;;5.90;86.90;;;;;;6220590;22;20278;-87
2021/03/22 07:29:46;;;;;;;14.85;5.50;;;6.10;88.20;;;;;;6250650;22;20190;-87
2021/03/22 07:32:48;;;;;;;11.05;6.40;;;6.00;86.20;;;;;;6186087;22;20198;-88
2021/03/22 07:38:48;;;;;;;10.63;6.35;;;6.90;88.30;;;;;;6129583;22;20299;-87
2021/03/22 07:41:33;;;;;;;8.82;5.45;;;6.30;89.70;;;;;;6232796;22;20166;-87
2021/03/22 07:49:42;;;;;;;5.85;3.55;;;6.80;87.10;;;;;;6066630;23;20287;-87
2021/03/22 07:55:29;;;;;;;;;;;;;;;;;;;;;
2021/03/22 08:13:29;;;;;;;4.35;2.67;;;6.30;85.90;;;;;;6192734;22;20208;-90
2021/03/22 08:21:49;;;;;;;9.20;5.35;;;6.70;86.00;;;;;;5618338;22;10949834;-90
2021/03/22 08:27:03;;;;;;;5.43;4.72;;;6.60;82.90;;;;;;6081040;23;20206;-89
2021/03/22 08:29:39;;;;;;;10.63;5.68;;;6.60;86.60;;;;;;6060936;23;20166;-90
2021/03/22 08:32:43;;;;;;;7.50;4.03;;;6.90;86.90;;;;;;6060639;23;20178;-90
2021/03/22 08:35:36;;;;;;;7.20;4.20;;;6.80;83.20;;;;;;6002646;23;20192;-88
2021/03/22 08:38:53;;;;;;;4.30;2.83;;;6.90;83.20;;;;;;6059634;23;20167;-88
2021/03/22 08:41:37;;;;;;;2.30;2.10;;;7.00;81.50;;;;;;6059534;23;20178;-90
2021/03/22 08:44:20;;;;;;;4.85;3.53;;;6.80;81.00;;;;;;6075732;23;20210;-89
2021/03/22 08:47:21;;;;;;;6.35;4.60;;;7.00;84.70;;;;;;6214361;23;20199;-90
2021/03/22 08:50:10;;;;;;;6.20;4.43;;;9.10;85.00;;;;;;6238939;23;20214;-89
2021/03/22 08:53:09;;;;;;;4.25;3.95;;;8.00;82.10;;;;;;6240390;23;20139;-87
2021/03/22 08:55:54;;;;;;;6.55;4.18;;;7.30;80.30;;;;;;6210110;23;20182;-89
2021/03/22 08:58:31;;;;;;;7.88;6.03;;;7.50;83.70;;;;;;6239817;23;20150;-87
2021/03/22 09:02:01;;;;;;;7.05;5.18;;;7.90;78.20;;;;;;6241242;23;20175;-88
2021/03/22 09:04:49;;;;;;;4.05;3.70;;;9.10;79.00;;;;;;6224049;23;20155;-88
2021/03/22 09:07:32;;;;;;;3.92;3.70;;;8.60;73.10;;;;;;6234897;23;20128;-89
2021/03/22 09:10:36;;;;;;;6.10;3.63;;;8.50;71.60;;;;;;6299881;22;20136;-89
2021/03/22 09:13:22;;;;;;;5.90;4.18;;;8.40;76.70;;;;;;6301778;22;20126;-88
2021/03/22 09:16:11;;;;;;;6.05;5.18;;;8.40;77.00;;;;;;6275042;22;20279;-85
2021/03/22 09:19:05;;;;;;;12.90;6.65;;;8.50;74.00;;;;;;6273867;22;20221;-85
2021/03/22 09:21:34;;;;;;;8.60;5.13;;;8.90;75.40;;;;;;6294027;22;20151;-89
2021/03/22 09:24:44;;;;;;;9.52;4.82;;;8.70;74.10;;;;;;6275544;22;20146;-87
2021/03/22 09:27:20;;;;;;;4.32;3.80;;;8.60;76.30;;;;;;6295479;22;20148;-87
2021/03/22 09:30:25;;;;;;;6.05;3.88;;;;;;;;;;6213496;22;20195;-88
2021/03/22 09:43:38;;;;;;;1.90;1.80;;;8.70;74.10;;;;;;6084867;23;20206;-88
2021/03/22 09:46:42;;;;;;;5.10;2.47;;;8.60;76.40;;;;;;6091682;23;20629;-88
2021/03/22 09:49:56;;;;;;;2.65;2.45;;;8.60;72.20;;;;;;6216175;23;20161;-85
2021/03/22 09:52:36;;;;;;;4.22;2.33;;;8.70;76.20;;;;;;6122038;22;20207;-88
2021/03/22 09:55:27;;;;;;;2.45;2.20;;;8.60;77.20;;;;;;6055744;23;20164;-87
2021/03/22 09:58:15;;;;;;;2.50;2.23;;;8.90;74.40;;;;;;6057276;23;20151;-87
2021/03/22 10:00:40;;;;;;;9.30;2.47;;;8.50;73.00;;;;;;6056845;23;20384;-87
2021/03/22 10:03:29;;;;;;;2.57;2.40;;;8.60;76.30;;;;;;6057727;23;20242;-86
2021/03/22 10:06:37;;;;;;;5.47;2.03;;;8.50;75.10;;;;;;6173856;22;20195;-88
2021/03/22 10:11:43;;;;;;;4.82;3.25;;;8.70;70.80;;;;;;6115138;23;20201;-90
2021/03/22 10:14:18;;;;;;;6.38;4.53;;;8.60;74.40;;;;;;6077643;23;20265;-87
2021/03/22 10:29:51;;;;;;;5.03;3.35;;;9.40;67.10;;;;;;6108251;23;20528;-89
2021/03/22 10:32:25;;;;;;;3.15;2.95;;;9.80;67.50;;;;;;6115101;23;20158;-87
2021/03/22 10:35:01;;;;;;;7.90;3.30;;;9.50;70.00;;;;;;6093377;23;20180;-87
2021/03/22 10:40:44;;;;;;;4.67;3.30;;;9.60;66.60;;;;;;6112766;23;20205;-87
2021/03/22 10:43:39;;;;;;;3.17;2.97;;;9.60;70.30;;;;;;6091974;23;20406;-88
2021/03/22 10:46:43;;;;;;;4.67;2.93;;;9.40;66.70;;;;;;6091529;23;20183;-88
2021/03/22 10:52:12;;;;;;;4.03;1.87;;;9.20;70.80;;;;;;6069251;23;20201;-86
2021/03/22 10:55:02;;;;;;;3.40;2.30;;;9.00;67.70;;;;;;6203623;23;20425;-87
2021/03/22 10:57:55;;;;;;;3.78;2.15;;;9.00;72.20;;;;;;6091618;23;20146;-87
2021/03/22 11:00:30;;;;;;;2.03;1.92;;;8.90;69.00;;;;;;6114197;23;20151;-87
2021/03/22 11:02:57;;;;;;;1.88;1.77;;;9.10;72.60;;;;;;6096044;23;20198;-88
2021/03/22 11:05:31;;;;;;;6.00;2.10;;;9.00;70.80;;;;;;6086533;23;20161;-87
2021/03/22 11:08:08;;;;;;;5.53;1.75;;;9.00;71.10;;;;;;6104886;22;20194;-87
2021/03/22 11:10:36;;;;;;;2.53;2.05;;;9.10;67.30;;;;;;6088020;23;20166;-86
2021/03/22 11:13:03;;;;;;;2.80;2.40;;;9.30;70.00;;;;;;6086075;23;20143;-88
2021/03/22 11:23:30;;;;;;;4.13;3.80;;;10.10;60.40;;;;;;6106824;22;20457;-88
2021/03/22 11:34:12;;;;;;;2.43;2.33;;;10.00;60.50;;;;;;6239533;23;20501;-88
2021/03/22 11:36:41;;;;;;;1.38;1.27;;;10.20;59.80;;;;;;6221898;23;21180;-87
2021/03/22 11:39:18;;;;;;;3.13;1.30;;;10.10;62.90;;;;;;6109800;22;20205;-88
2021/03/22 11:44:42;;;;;;;1.83;1.73;;;10.30;61.40;;;;;;6133351;22;20186;-87
2021/03/22 11:49:48;;;;;;;2.05;1.90;;;9.90;63.10;;;;;;6178739;22;20206;-87
2021/03/22 11:52:34;;;;;;;3.03;1.63;;;10.00;65.30;;;;;;6149724;22;20474;-91
2021/03/22 11:57:50;;;;;;;1.80;1.27;;;;;;;;;;6090367;23;20222;-86
2021/03/22 12:00:28;;;;;;;1.03;1.03;;;10.70;57.20;;;;;;6056887;22;20439;-85
2021/03/22 12:05:45;;;;;;;1.87;1.30;;;10.90;56.60;;;;;;6090315;22;20194;-86
2021/03/22 12:08:33;;;;;;;1.17;1.00;;;10.80;59.20;;;;;;6113731;23;20370;-86
2021/03/22 12:13:39;;;;;;;2.40;1.37;;;10.50;58.70;;;;;;6138399;22;20260;-88
2021/03/22 12:18:57;;;;;;;2.47;2.07;;;10.30;64.30;;;;;;6207913;23;20211;-89
2021/03/22 12:26:33;;;;;;;1.50;1.48;;;10.00;71.90;;;;;;6236816;22;20414;-88
2021/03/22 12:29:04;;;;;;;7.40;1.03;;;9.80;76.30;;;;;;6213296;23;20182;-85
2021/03/22 12:34:08;;;;;;;2.00;1.80;;;9.40;76.80;;;;;;6192822;22;20202;-86
2021/03/22 12:36:35;;;;;;;1.40;1.30;;;9.40;78.30;;;;;;6178836;22;20266;-86
2021/03/22 12:39:21;;;;;;;3.22;2.10;;;9.50;79.60;;;;;;6206859;23;20170;-87
2021/03/22 12:41:52;;;;;;;7.82;7.10;;;9.40;59.70;;;;;;6194128;23;20141;-87
2021/03/22 12:44:19;;;;;;;7.47;2.05;;;9.40;59.90;;;;;;6211605;23;20139;-88
2021/03/22 12:46:46;;;;;;;2.83;1.75;;;9.80;58.80;;;;;;6205305;23;20214;-87
2021/03/22 12:49:23;;;;;;;1.70;1.60;;;10.80;58.80;;;;;;6272099;22;20137;-87
2021/03/22 12:51:53;;;;;;;2.00;1.67;;;9.70;59.40;;;;;;6193762;22;20523;-89
2021/03/22 12:54:20;;;;;;;1.73;1.60;;;9.40;61.80;;;;;;6092331;23;20181;-87
2021/03/22 12:56:58;;;;;;;1.77;1.67;;;9.50;58.80;;;;;;6217263;23;20445;-88
2021/03/22 12:59:31;;;;;;;1.83;1.60;;;9.70;61.00;;;;;;6092169;23;20390;-86
2021/03/22 13:01:59;;;;;;;3.25;2.08;;;11.00;58.60;;;;;;6079859;23;20445;-87
2021/03/22 13:15:43;;;;;;;1.90;1.75;;;10.10;57.40;;;;;;6114284;23;20185;-87
2021/03/22 13:18:14;;;;;;;1.53;1.53;;;10.40;57.00;;;;;;6116626;23;20176;-87
2021/03/22 13:20:57;;;;;;;1.55;1.55;;;10.10;57.90;;;;;;6091589;23;20408;-88
2021/03/22 13:28:51;;;;;;;1.73;1.55;;;10.30;55.80;;;;;;6118352;23;20413;-87
2021/03/22 13:34:27;;;;;;;1.60;1.50;;;10.30;56.40;;;;;;6108639;23;20461;-87
2021/03/22 13:37:09;;;;;;;1.13;1.13;;;11.90;57.50;;;;;;6217552;23;20161;-86
2021/03/22 13:39:47;;;;;;;2.03;1.93;;;9.80;55.70;;;;;;6199197;22;20213;-87
2021/03/22 13:42:13;;;;;;;1.38;1.38;;;9.70;58.10;;;;;;6143261;23;20417;-89
2021/03/22 13:47:17;;;;;;;2.25;1.35;;;9.70;57.00;;;;;;6105575;23;20193;-88
2021/03/22 13:49:45;;;;;;;3.22;1.17;;;9.70;58.30;;;;;;6107605;23;20186;-87
2021/03/22 13:58:09;;;;;;;3.05;2.30;;;9.90;56.30;;;;;;6101066;23;21051;-87
2021/03/22 14:00:39;;;;;;;2.20;1.77;;;10.00;55.70;;;;;;6105330;23;20212;-88
2021/03/22 14:03:12;;;;;;;5.00;2.08;;;10.10;57.40;;;;;;6116680;23;20362;-89
2021/03/22 14:05:57;;;;;;;1.73;1.63;;;10.20;55.40;;;;;;6220037;22;20206;-88
2021/03/22 14:08:37;;;;;;;3.28;2.20;;;10.20;55.60;;;;;;6204010;22;20545;-88
2021/03/22 14:16:09;;;;;;;2.33;2.13;;;10.10;57.20;;;;;;6104403;23;20220;-88
2021/03/22 14:18:40;;;;;;;3.13;2.10;;;9.80;59.20;;;;;;6120730;23;20209;-89
2021/03/22 14:21:29;;;;;;;2.13;1.92;;;9.80;59.80;;;;;;6119058;23;20273;-89
2021/03/22 14:24:01;;;;;;;2.20;2.00;;;9.80;59.40;;;;;;6085470;23;20229;-90
2021/03/22 14:26:27;;;;;;;2.20;2.10;;;9.70;60.50;;;;;;6097727;23;20158;-92
2021/03/22 14:31:31;;;;;;;2.00;2.00;;;9.70;59.20;;;;;;6119224;22;20197;-89
2021/03/22 14:34:01;;;;;;;3.83;2.20;;;9.60;60.60;;;;;;6121532;22;20183;-89
2021/03/22 14:36:31;;;;;;;4.03;1.60;;;11.40;59.70;;;;;;6225152;22;20231;-87
2021/03/22 14:39:02;;;;;;;1.70;1.60;;;9.10;60.30;;;;;;6273047;22;20380;-88
2021/03/22 14:41:38;;;;;;;1.70;1.70;;;9.60;58.50;;;;;;6245477;23;20139;-87
2021/03/22 14:44:20;;;;;;;1.77;1.70;;;9.40;59.80;;;;;;6272376;23;20572;-88
2021/03/22 14:47:20;;;;;;;2.80;2.55;;;9.40;60.80;;;;;;6231806;22;20155;-88
2021/03/22 14:50:05;;;;;;;2.70;1.75;;;9.30;60.50;;;;;;6166731;22;20185;-89
2021/03/22 14:52:35;;;;;;;2.78;1.60;;;9.30;60.40;;;;;;6119106;23;20133;-87
2021/03/22 14:55:14;;;;;;;2.05;2.05;;;10.90;59.30;;;;;;6113013;23;20209;-86
2021/03/22 14:57:53;;;;;;;2.33;2.22;;;9.40;60.60;;;;;;6102851;23;21014;-88
2021/03/22 15:00:34;;;;;;;2.07;2.00;;;9.50;60.10;;;;;;6170647;22;20206;-86
2021/03/22 15:08:27;;;;;;;3.23;2.20;;;9.90;58.60;;;;;;6103323;22;20190;-86
2021/03/22 15:10:56;;;;;;;2.38;2.30;;;;;;;;;;6221787;23;20392;-89
2021/03/22 15:13:34;;;;;;;2.03;1.90;;;9.70;59.50;;;;;;6194745;23;20172;-88
2021/03/22 15:16:04;;;;;;;3.00;2.67;;;9.60;57.90;;;;;;6118400;23;20145;-87
2021/03/22 15:18:30;;;;;;;3.10;2.80;;;9.70;59.50;;;;;;6119936;23;20158;-88
2021/03/22 15:23:36;;;;;;;2.00;1.90;;;9.70;58.40;;;;;;6102184;23;20263;-86
2021/03/22 15:26:48;;;;;;;2.67;2.47;;;9.70;59.20;;;;;;6116290;23;20295;-86
2021/03/22 15:34:41;;;;;;;2.42;2.33;;;9.80;59.00;;;;;;6167765;22;20466;-86
2021/03/22 15:37:16;;;;;;;4.88;3.10;;;;;;;;;;6064415;23;20352;-87
2021/03/22 15:56:37;;;;;;;3.78;3.20;;;9.10;64.90;;;;;;6180514;22;20263;-87
2021/03/22 16:04:19;;;;;;;6.43;3.40;;;9.10;66.20;;;;;;6065804;23;20233;-88
2021/03/22 16:06:46;;;;;;;4.70;3.60;;;9.00;65.10;;;;;;6056833;23;20207;-86
2021/03/22 16:11:56;;;;;;;4.03;3.53;;;9.20;66.10;;;;;;6044953;23;20232;-89
2021/03/22 16:17:31;;;;;;;4.70;4.30;;;8.90;66.70;;;;;;6244469;22;20253;-86
2021/03/22 16:25:44;;;;;;;5.15;3.30;;;9.00;65.70;;;;;;6160641;23;20215;-88
2021/03/22 16:28:15;;;;;;;3.78;2.80;;;8.90;64.10;;;;;;6174753;23;20203;-89
2021/03/22 16:30:50;;;;;;;3.15;2.92;;;8.90;64.60;;;;;;6210109;23;20160;-87
2021/03/22 16:33:50;;;;;;;5.55;3.30;;;8.40;68.30;;;;;;6205966;23;20166;-88
2021/03/22 16:36:36;;;;;;;3.33;3.22;;;9.70;67.40;;;;;;6112903;23;20206;-88
2021/03/22 16:39:05;;;;;;;2.42;2.33;;;9.00;69.10;;;;;;6098007;23;20183;-90
2021/03/22 16:41:33;;;;;;;4.22;2.75;;;8.90;68.60;;;;;;6091520;23;20181;-90
2021/03/22 16:44:24;;;;;;;2.75;2.65;;;9.00;67.50;;;;;;6093122;23;20145;-88
2021/03/22 16:47:06;;;;;;;3.13;2.92;;;8.90;67.80;;;;;;6091081;23;20150;-88
2021/03/22 16:49:41;;;;;;;7.80;2.60;;;9.10;68.60;;;;;;6092362;23;20163;-87
2021/03/22 16:52:09;;;;;;;2.78;2.53;;;9.00;68.40;;;;;;6115243;23;20142;-87
2021/03/22 16:54:47;;;;;;;2.70;2.38;;;9.00;64.50;;;;;;6086641;23;20189;-85
2021/03/22 16:57:28;;;;;;;3.60;2.83;;;9.00;67.60;;;;;;6090570;23;20317;-87
2021/03/22 16:59:54;;;;;;;8.82;4.18;;;8.90;68.40;;;;;;6113041;23;20177;-87
2021/03/22 17:02:23;;;;;;;3.42;2.97;;;8.90;69.10;;;;;;6115099;23;20145;-85
2021/03/22 17:10:26;;;;;;;5.07;2.90;;;8.90;66.60;;;;;;6154309;22;20582;-87
2021/03/22 17:13:00;;;;;;;3.67;3.38;;;8.90;69.70;;;;;;6120631;23;20597;-87
2021/03/22 17:15:27;;;;;;;3.80;3.30;;;8.80;66.40;;;;;;6115036;23;20189;-87
2021/03/22 17:19:01;;;;;;;6.55;2.97;;;8.80;69.10;;;;;;6106012;23;20198;-86
2021/03/22 17:21:30;;;;;;;4.53;3.65;;;8.80;66.20;;;;;;6059036;23;20160;-88
2021/03/22 17:24:20;;;;;;;4.95;4.75;;;10.10;66.80;;;;;;6057071;23;20171;-88
2021/03/22 17:27:59;;;;;;;9.80;5.07;;;8.60;69.10;;;;;;6057532;23;20159;-88
2021/03/22 17:30:40;;;;;;;4.72;2.75;;;8.50;66.40;;;;;;5964554;23;20228;-88
2021/03/22 17:33:28;;;;;;;3.97;3.67;;;8.50;69.60;;;;;;5977332;24;20168;-88
2021/03/22 17:36:37;;;;;;;4.07;3.88;;;9.30;68.00;;;;;;5976301;23;20290;-88
2021/03/22 17:39:24;;;;;;;4.68;3.70;;;8.80;66.50;;;;;;5960394;23;20213;-88
2021/03/22 17:58:24;;;;;;;8.55;4.30;;;8.50;70.70;;;;;;6090004;23;20206;-85
2021/03/22 18:03:28;;;;;;;4.68;4.45;;;8.50;68.90;;;;;;6090315;23;20213;-87
2021/03/22 18:06:01;;;;;;;4.22;3.90;;;8.50;71.30;;;;;;6217394;23;20154;-87
2021/03/22 18:08:29;;;;;;;4.00;3.15;;;8.50;67.40;;;;;;6091800;23;20153;-87
2021/03/22 18:13:52;;;;;;;4.25;3.80;;;8.40;69.00;;;;;;6144288;22;20209;-87
2021/03/22 18:18:59;;;;;;;4.10;3.63;;;8.30;70.50;;;;;;6163896;22;20265;-87
2021/03/22 19:04:46;;;;;;;3.65;3.35;;;8.40;72.70;;;;;;6100427;22;20279;-87
2021/03/22 19:10:11;;;;;;;3.28;3.13;;;8.30;72.70;;;;;;6272904;22;20244;-86
2021/03/22 19:23:03;;;;;;;4.03;3.33;;;8.50;73.90;;;;;;6146376;23;20212;-86
2021/03/22 19:25:31;;;;;;;4.15;3.60;;;8.30;78.10;;;;;;6090769;23;20188;-87
2021/03/22 19:28:14;;;;;;;4.93;3.00;;;8.40;74.30;;;;;;6114831;23;20162;-87
